sensor_id;sensor_type;location;lat;lon;timestamp;pressure;altitude;pressure_sealevel;temperature;humidity
11621;BME280;5866;49.094;11.900;2023-03-13T00:00:52;95831.84;;;8.82;100.00
11621;BME280;5866;49.094;11.900;2023-03-13T00:03:20;95820.06;;;8.76;100.00
11621;BME280;5866;49.094;11.900;2023-03-13T00:05:48;95821.31;;;9.14;100.00
11621;BME280;5866;49.094;11.900;2023-03-13T00:08:15;95819.28;;;8.92;100.00
11621;BME280;5866;49.094;11.900;2023-03-13T00:10:43;95816.59;;;8.75;100.00
11621;BME280;5866;49.094;11.900;2023-03-13T00:13:12;95809.66;;;8.74;100.00
11621;BME280;5866;49.094;11.900;2023-03-13T00:15:39;95805.06;;;8.93;100.00
11621;BME280;5866;49.094;11.900;2023-03-13T00:18:07;95802.38;;;8.76;100.00
11621;BME280;5866;49.094;11.900;2023-03-13T00:20:34;95798.31;;;8.98;100.00
11621;BME280;5866;49.094;11.900;2023-03-13T00:23:02;95805.69;;;8.70;100.00
11621;BME280;5866;49.094;11.900;2023-03-13T00:25:29;95796.31;;;8.92;100.00
11621;BME280;5866;49.094;11.900;2023-03-13T00:27:57;95788.88;;;8.88;100.00
11621;BME280;5866;49.094;11.900;2023-03-13T00:30:26;95789.19;;;8.85;100.00
11621;BME280;5866;49.094;11.900;2023-03-13T00:32:53;95790.88;;;8.94;100.00
11621;BME280;5866;49.094;11.900;2023-03-13T00:35:21;95781.97;;;9.19;100.00
11621;BME280;5866;49.094;11.900;2023-03-13T00:37:48;95776.97;;;9.00;100.00
11621;BME280;5866;49.094;11.900;2023-03-13T00:40:16;95771.69;;;9.00;100.00
11621;BME280;5866;49.094;11.900;2023-03-13T00:42:45;95774.28;;;8.75;100.00
11621;BME280;5866;49.094;11.900;2023-03-13T00:45:13;95778.25;;;8.71;100.00
11621;BME280;5866;49.094;11.900;2023-03-13T00:47:41;95767.41;;;9.07;100.00
11621;BME280;5866;49.094;11.900;2023-03-13T00:50:10;95763.44;;;9.11;100.00
11621;BME280;5866;49.094;11.900;2023-03-13T00:52:37;95760.81;;;9.19;100.00
11621;BME280;5866;49.094;11.900;2023-03-13T00:55:06;95760.94;;;8.93;100.00
11621;BME280;5866;49.094;11.900;2023-03-13T00:57:33;95752.50;;;8.98;100.00
11621;BME280;5866;49.094;11.900;2023-03-13T01:00:03;95749.22;;;8.96;100.00
11621;BME280;5866;49.094;11.900;2023-03-13T01:02:32;95749.03;;;8.89;100.00
11621;BME280;5866;49.094;11.900;2023-03-13T01:05:01;95748.66;;;8.68;100.00
11621;BME280;5866;49.094;11.900;2023-03-13T01:07:29;95748.63;;;8.52;100.00
11621;BME280;5866;49.094;11.900;2023-03-13T01:09:56;95732.97;;;8.66;100.00
11621;BME280;5866;49.094;11.900;2023-03-13T01:12:24;95735.22;;;8.45;100.00
11621;BME280;5866;49.094;11.900;2023-03-13T01:14:51;95740.25;;;8.64;100.00
11621;BME280;5866;49.094;11.900;2023-03-13T01:17:19;95739.75;;;8.77;100.00
11621;BME280;5866;49.094;11.900;2023-03-13T01:19:47;95734.28;;;8.62;100.00
11621;BME280;5866;49.094;11.900;2023-03-13T01:22:16;95732.63;;;8.69;100.00
11621;BME280;5866;49.094;11.900;2023-03-13T01:24:44;95734.69;;;8.34;100.00
11621;BME280;5866;49.094;11.900;2023-03-13T01:27:15;95741.69;;;8.59;100.00
11621;BME280;5866;49.094;11.900;2023-03-13T01:29:42;95741.81;;;8.33;100.00
11621;BME280;5866;49.094;11.900;2023-03-13T01:32:10;95745.13;;;8.43;100.00
11621;BME280;5866;49.094;11.900;2023-03-13T01:34:37;95746.84;;;8.68;100.00
11621;BME280;5866;49.094;11.900;2023-03-13T01:37:05;95747.03;;;8.83;100.00
11621;BME280;5866;49.094;11.900;2023-03-13T01:39:34;95743.72;;;8.73;100.00
11621;BME280;5866;49.094;11.900;2023-03-13T01:42:02;95738.94;;;8.93;100.00
11621;BME280;5866;49.094;11.900;2023-03-13T01:44:48;95744.22;;;8.68;100.00
11621;BME280;5866;49.094;11.900;2023-03-13T01:47:16;95735.63;;;8.82;100.00
11621;BME280;5866;49.094;11.900;2023-03-13T01:49:43;95729.06;;;9.03;100.00
11621;BME280;5866;49.094;11.900;2023-03-13T01:52:13;95721.44;;;9.00;100.00
11621;BME280;5866;49.094;11.900;2023-03-13T01:54:47;95730.81;;;8.62;100.00
11621;BME280;5866;49.094;11.900;2023-03-13T01:57:19;95718.34;;;8.38;100.00
11621;BME280;5866;49.094;11.900;2023-03-13T01:59:52;95726.63;;;8.35;100.00
11621;BME280;5866;49.094;11.900;2023-03-13T02:02:20;95730.78;;;8.54;100.00
11621;BME280;5866;49.094;11.900;2023-03-13T02:04:53;95735.34;;;8.36;100.00
11621;BME280;5866;49.094;11.900;2023-03-13T02:07:25;95727.59;;;8.42;100.00
11621;BME280;5866;49.094;11.900;2023-03-13T02:09:55;95726.75;;;8.34;100.00
11621;BME280;5866;49.094;11.900;2023-03-13T02:12:26;95717.69;;;8.44;100.00
11621;BME280;5866;49.094;11.900;2023-03-13T02:14:57;95722.03;;;8.53;100.00
11621;BME280;5866;49.094;11.900;2023-03-13T02:17:25;95711.25;;;8.31;100.00
11621;BME280;5866;49.094;11.900;2023-03-13T02:19:53;95714.63;;;8.23;100.00
11621;BME280;5866;49.094;11.900;2023-03-13T02:22:28;95701.19;;;8.00;100.00
11621;BME280;5866;49.094;11.900;2023-03-13T02:25:01;95714.28;;;8.10;100.00
11621;BME280;5866;49.094;11.900;2023-03-13T02:27:34;95701.88;;;8.11;100.00
11621;BME280;5866;49.094;11.900;2023-03-13T02:30:03;95710.97;;;8.08;100.00
11621;BME280;5866;49.094;11.900;2023-03-13T02:32:30;95716.34;;;7.98;100.00
11621;BME280;5866;49.094;11.900;2023-03-13T02:35:02;95712.81;;;7.82;100.00
11621;BME280;5866;49.094;11.900;2023-03-13T02:37:32;95714.81;;;7.88;100.00
11621;BME280;5866;49.094;11.900;2023-03-13T02:40:02;95719.16;;;7.97;100.00
11621;BME280;5866;49.094;11.900;2023-03-13T02:42:31;95716.47;;;8.23;100.00
11621;BME280;5866;49.094;11.900;2023-03-13T02:45:00;95708.53;;;8.15;100.00
11621;BME280;5866;49.094;11.900;2023-03-13T02:47:27;95702.81;;;8.27;100.00
11621;BME280;5866;49.094;11.900;2023-03-13T02:49:55;95707.72;;;8.22;100.00
11621;BME280;5866;49.094;11.900;2023-03-13T02:52:25;95697.38;;;8.29;100.00
11621;BME280;5866;49.094;11.900;2023-03-13T02:54:56;95696.91;;;8.49;100.00
11621;BME280;5866;49.094;11.900;2023-03-13T02:57:25;95699.25;;;8.68;100.00
11621;BME280;5866;49.094;11.900;2023-03-13T02:59:52;95703.81;;;8.42;100.00
11621;BME280;5866;49.094;11.900;2023-03-13T03:02:21;95705.38;;;8.19;100.00
11621;BME280;5866;49.094;11.900;2023-03-13T03:04:49;95701.22;;;8.50;100.00
11621;BME280;5866;49.094;11.900;2023-03-13T03:07:16;95706.66;;;8.57;100.00
11621;BME280;5866;49.094;11.900;2023-03-13T03:09:44;95699.75;;;8.56;100.00
11621;BME280;5866;49.094;11.900;2023-03-13T03:12:11;95700.41;;;8.66;100.00
11621;BME280;5866;49.094;11.900;2023-03-13T03:14:39;95692.47;;;8.58;100.00
11621;BME280;5866;49.094;11.900;2023-03-13T03:17:06;95682.72;;;8.50;100.00
11621;BME280;5866;49.094;11.900;2023-03-13T03:19:35;95681.25;;;8.72;100.00
11621;BME280;5866;49.094;11.900;2023-03-13T03:22:03;95680.41;;;8.71;100.00
11621;BME280;5866;49.094;11.900;2023-03-13T03:24:31;95674.63;;;8.76;100.00
11621;BME280;5866;49.094;11.900;2023-03-13T03:26:58;95677.09;;;8.69;100.00
11621;BME280;5866;49.094;11.900;2023-03-13T03:29:26;95675.78;;;8.73;100.00
11621;BME280;5866;49.094;11.900;2023-03-13T03:31:54;95670.16;;;9.01;100.00
11621;BME280;5866;49.094;11.900;2023-03-13T03:34:21;95674.47;;;9.10;100.00
11621;BME280;5866;49.094;11.900;2023-03-13T03:36:50;95679.44;;;8.97;100.00
11621;BME280;5866;49.094;11.900;2023-03-13T03:39:18;95669.38;;;9.08;100.00
11621;BME280;5866;49.094;11.900;2023-03-13T03:41:45;95662.09;;;9.02;100.00
11621;BME280;5866;49.094;11.900;2023-03-13T03:44:13;95661.28;;;8.94;100.00
11621;BME280;5866;49.094;11.900;2023-03-13T03:46:40;95656.97;;;9.17;100.00
11621;BME280;5866;49.094;11.900;2023-03-13T03:49:08;95655.56;;;9.61;100.00
11621;BME280;5866;49.094;11.900;2023-03-13T03:51:35;95651.19;;;9.68;100.00
11621;BME280;5866;49.094;11.900;2023-03-13T03:54:04;95649.31;;;9.93;100.00
11621;BME280;5866;49.094;11.900;2023-03-13T03:56:32;95641.38;;;9.85;100.00
11621;BME280;5866;49.094;11.900;2023-03-13T03:58:59;95638.41;;;9.88;100.00
11621;BME280;5866;49.094;11.900;2023-03-13T04:01:27;95635.47;;;9.75;100.00
11621;BME280;5866;49.094;11.900;2023-03-13T04:03:54;95641.25;;;9.15;100.00
11621;BME280;5866;49.094;11.900;2023-03-13T04:06:22;95633.44;;;9.38;100.00
11621;BME280;5866;49.094;11.900;2023-03-13T04:08:49;95630.97;;;9.20;100.00
11621;BME280;5866;49.094;11.900;2023-03-13T04:11:18;95639.09;;;9.11;100.00
11621;BME280;5866;49.094;11.900;2023-03-13T04:13:45;95633.50;;;8.90;100.00
11621;BME280;5866;49.094;11.900;2023-03-13T04:16:13;95626.06;;;8.93;100.00
11621;BME280;5866;49.094;11.900;2023-03-13T04:18:40;95625.06;;;8.78;100.00
11621;BME280;5866;49.094;11.900;2023-03-13T04:21:08;95617.97;;;8.54;100.00
11621;BME280;5866;49.094;11.900;2023-03-13T04:23:35;95618.78;;;8.55;100.00
11621;BME280;5866;49.094;11.900;2023-03-13T04:26:03;95615.63;;;9.00;100.00
11621;BME280;5866;49.094;11.900;2023-03-13T04:28:32;95611.00;;;9.02;100.00
11621;BME280;5866;49.094;11.900;2023-03-13T04:30:59;95598.13;;;8.74;100.00
11621;BME280;5866;49.094;11.900;2023-03-13T04:33:28;95595.31;;;9.00;100.00
11621;BME280;5866;49.094;11.900;2023-03-13T04:35:55;95592.66;;;8.84;100.00
11621;BME280;5866;49.094;11.900;2023-03-13T04:38:23;95597.81;;;8.45;100.00
11621;BME280;5866;49.094;11.900;2023-03-13T04:40:50;95594.84;;;8.72;100.00
11621;BME280;5866;49.094;11.900;2023-03-13T04:43:18;95593.50;;;8.76;100.00
11621;BME280;5866;49.094;11.900;2023-03-13T04:45:47;95586.91;;;8.56;100.00
11621;BME280;5866;49.094;11.900;2023-03-13T04:48:15;95594.19;;;8.62;100.00
11621;BME280;5866;49.094;11.900;2023-03-13T04:50:42;95589.53;;;8.72;100.00
11621;BME280;5866;49.094;11.900;2023-03-13T04:53:10;95588.88;;;8.87;100.00
11621;BME280;5866;49.094;11.900;2023-03-13T04:55:37;95578.31;;;8.78;100.00
11621;BME280;5866;49.094;11.900;2023-03-13T04:58:05;95589.19;;;8.75;100.00
11621;BME280;5866;49.094;11.900;2023-03-13T05:00:32;95584.25;;;8.64;100.00
11621;BME280;5866;49.094;11.900;2023-03-13T05:03:01;95585.53;;;8.93;100.00
11621;BME280;5866;49.094;11.900;2023-03-13T05:05:29;95571.69;;;8.74;100.00
11621;BME280;5866;49.094;11.900;2023-03-13T05:07:56;95576.97;;;8.42;100.00
11621;BME280;5866;49.094;11.900;2023-03-13T05:10:24;95576.09;;;8.10;100.00
11621;BME280;5866;49.094;11.900;2023-03-13T05:12:51;95582.00;;;7.87;100.00
11621;BME280;5866;49.094;11.900;2023-03-13T05:15:19;95580.13;;;7.64;100.00
11621;BME280;5866;49.094;11.900;2023-03-13T05:17:46;95569.84;;;7.61;100.00
11621;BME280;5866;49.094;11.900;2023-03-13T05:20:15;95563.94;;;7.67;100.00
11621;BME280;5866;49.094;11.900;2023-03-13T05:22:43;95555.94;;;7.43;100.00
11621;BME280;5866;49.094;11.900;2023-03-13T05:25:10;95540.13;;;7.43;100.00
11621;BME280;5866;49.094;11.900;2023-03-13T05:27:38;95556.13;;;7.41;100.00
11621;BME280;5866;49.094;11.900;2023-03-13T05:30:07;95561.88;;;7.37;100.00
11621;BME280;5866;49.094;11.900;2023-03-13T05:32:35;95541.16;;;7.50;100.00
11621;BME280;5866;49.094;11.900;2023-03-13T05:35:02;95538.16;;;7.45;100.00
11621;BME280;5866;49.094;11.900;2023-03-13T05:37:31;95544.22;;;7.37;100.00
11621;BME280;5866;49.094;11.900;2023-03-13T05:39:59;95541.06;;;7.34;100.00
11621;BME280;5866;49.094;11.900;2023-03-13T05:42:26;95551.31;;;7.37;100.00
11621;BME280;5866;49.094;11.900;2023-03-13T05:44:54;95554.56;;;7.22;100.00
11621;BME280;5866;49.094;11.900;2023-03-13T05:47:21;95553.63;;;7.40;100.00
11621;BME280;5866;49.094;11.900;2023-03-13T05:49:49;95549.41;;;7.55;100.00
11621;BME280;5866;49.094;11.900;2023-03-13T05:52:16;95539.47;;;7.49;100.00
11621;BME280;5866;49.094;11.900;2023-03-13T05:54:45;95545.56;;;7.41;100.00
11621;BME280;5866;49.094;11.900;2023-03-13T05:57:13;95544.81;;;7.65;100.00
11621;BME280;5866;49.094;11.900;2023-03-13T05:59:40;95545.13;;;7.62;100.00
11621;BME280;5866;49.094;11.900;2023-03-13T06:02:08;95537.94;;;7.96;100.00
11621;BME280;5866;49.094;11.900;2023-03-13T06:04:35;95532.66;;;7.96;100.00
11621;BME280;5866;49.094;11.900;2023-03-13T06:07:03;95540.28;;;8.15;100.00
11621;BME280;5866;49.094;11.900;2023-03-13T06:09:31;95539.78;;;8.20;100.00
11621;BME280;5866;49.094;11.900;2023-03-13T06:12:00;95544.22;;;8.11;100.00
11621;BME280;5866;49.094;11.900;2023-03-13T06:14:27;95524.09;;;8.10;100.00
11621;BME280;5866;49.094;11.900;2023-03-13T06:16:54;95530.69;;;7.98;100.00
11621;BME280;5866;49.094;11.900;2023-03-13T06:19:22;95527.41;;;8.12;100.00
11621;BME280;5866;49.094;11.900;2023-03-13T06:21:50;95503.63;;;8.04;100.00
11621;BME280;5866;49.094;11.900;2023-03-13T06:24:18;95522.63;;;7.99;100.00
11621;BME280;5866;49.094;11.900;2023-03-13T06:26:47;95527.00;;;7.67;100.00
11621;BME280;5866;49.094;11.900;2023-03-13T06:29:16;95533.13;;;7.26;100.00
11621;BME280;5866;49.094;11.900;2023-03-13T06:31:44;95529.53;;;7.35;100.00
11621;BME280;5866;49.094;11.900;2023-03-13T06:34:12;95527.59;;;7.45;100.00
11621;BME280;5866;49.094;11.900;2023-03-13T06:36:39;95509.81;;;7.55;100.00
11621;BME280;5866;49.094;11.900;2023-03-13T06:39:07;95500.47;;;7.84;100.00
11621;BME280;5866;49.094;11.900;2023-03-13T06:41:35;95498.97;;;7.90;100.00
11621;BME280;5866;49.094;11.900;2023-03-13T06:44:03;95492.38;;;7.78;100.00
11621;BME280;5866;49.094;11.900;2023-03-13T06:46:32;95500.28;;;7.78;100.00
11621;BME280;5866;49.094;11.900;2023-03-13T06:48:59;95501.44;;;7.67;100.00
11621;BME280;5866;49.094;11.900;2023-03-13T06:51:30;95498.00;;;7.83;100.00
11621;BME280;5866;49.094;11.900;2023-03-13T06:53:57;95505.28;;;8.05;100.00
11621;BME280;5866;49.094;11.900;2023-03-13T06:56:25;95505.28;;;8.21;100.00
11621;BME280;5866;49.094;11.900;2023-03-13T06:58:52;95511.44;;;8.38;100.00
11621;BME280;5866;49.094;11.900;2023-03-13T07:01:20;95509.59;;;8.38;100.00
11621;BME280;5866;49.094;11.900;2023-03-13T07:03:49;95505.81;;;8.41;100.00
11621;BME280;5866;49.094;11.900;2023-03-13T07:06:17;95509.06;;;7.94;100.00
11621;BME280;5866;49.094;11.900;2023-03-13T07:08:44;95515.16;;;7.79;100.00
11621;BME280;5866;49.094;11.900;2023-03-13T07:11:13;95515.47;;;7.76;100.00
11621;BME280;5866;49.094;11.900;2023-03-13T07:13:40;95510.47;;;7.57;100.00
11621;BME280;5866;49.094;11.900;2023-03-13T07:16:10;95504.56;;;7.71;100.00
11621;BME280;5866;49.094;11.900;2023-03-13T07:18:39;95500.81;;;7.89;100.00
11621;BME280;5866;49.094;11.900;2023-03-13T07:21:11;95496.81;;;7.69;100.00
11621;BME280;5866;49.094;11.900;2023-03-13T07:23:39;95496.97;;;7.60;100.00
11621;BME280;5866;49.094;11.900;2023-03-13T07:26:09;95494.34;;;7.60;100.00
11621;BME280;5866;49.094;11.900;2023-03-13T07:28:37;95504.88;;;7.60;100.00
11621;BME280;5866;49.094;11.900;2023-03-13T07:31:06;95500.09;;;7.63;100.00
11621;BME280;5866;49.094;11.900;2023-03-13T07:33:34;95492.00;;;7.65;100.00
11621;BME280;5866;49.094;11.900;2023-03-13T07:36:03;95496.03;;;7.93;100.00
11621;BME280;5866;49.094;11.900;2023-03-13T07:38:32;95487.06;;;7.62;100.00
11621;BME280;5866;49.094;11.900;2023-03-13T07:40:59;95481.59;;;7.39;100.00
11621;BME280;5866;49.094;11.900;2023-03-13T07:43:27;95492.28;;;7.46;100.00
11621;BME280;5866;49.094;11.900;2023-03-13T07:45:57;95492.94;;;7.40;100.00
11621;BME280;5866;49.094;11.900;2023-03-13T07:48:28;95489.03;;;7.52;100.00
11621;BME280;5866;49.094;11.900;2023-03-13T07:50:57;95482.75;;;7.53;100.00
11621;BME280;5866;49.094;11.900;2023-03-13T07:53:25;95482.00;;;7.76;100.00
11621;BME280;5866;49.094;11.900;2023-03-13T07:55:56;95482.16;;;7.83;100.00
11621;BME280;5866;49.094;11.900;2023-03-13T07:58:26;95491.41;;;8.19;100.00
11621;BME280;5866;49.094;11.900;2023-03-13T08:00:53;95485.66;;;8.32;100.00
11621;BME280;5866;49.094;11.900;2023-03-13T08:03:21;95484.84;;;8.47;100.00
11621;BME280;5866;49.094;11.900;2023-03-13T08:05:57;95487.50;;;8.39;100.00
11621;BME280;5866;49.094;11.900;2023-03-13T08:08:25;95487.44;;;8.23;100.00
11621;BME280;5866;49.094;11.900;2023-03-13T08:10:52;95488.13;;;8.09;100.00
11621;BME280;5866;49.094;11.900;2023-03-13T08:13:21;95491.41;;;7.95;100.00
11621;BME280;5866;49.094;11.900;2023-03-13T08:15:49;95493.88;;;7.96;100.00
11621;BME280;5866;49.094;11.900;2023-03-13T08:18:16;95494.41;;;8.00;100.00
11621;BME280;5866;49.094;11.900;2023-03-13T08:20:44;95489.44;;;7.89;100.00
11621;BME280;5866;49.094;11.900;2023-03-13T08:23:11;95482.50;;;8.04;100.00
11621;BME280;5866;49.094;11.900;2023-03-13T08:25:39;95490.25;;;8.06;100.00
11621;BME280;5866;49.094;11.900;2023-03-13T08:28:06;95486.50;;;8.32;100.00
11621;BME280;5866;49.094;11.900;2023-03-13T08:30:35;95479.56;;;8.39;100.00
11621;BME280;5866;49.094;11.900;2023-03-13T08:33:03;95475.88;;;8.72;100.00
11621;BME280;5866;49.094;11.900;2023-03-13T08:35:33;95475.38;;;9.16;100.00
11621;BME280;5866;49.094;11.900;2023-03-13T08:38:00;95476.81;;;9.65;100.00
11621;BME280;5866;49.094;11.900;2023-03-13T08:40:28;95455.50;;;10.26;100.00
11621;BME280;5866;49.094;11.900;2023-03-13T08:42:55;95448.47;;;11.14;100.00
11621;BME280;5866;49.094;11.900;2023-03-13T08:45:23;95449.38;;;11.86;100.00
11621;BME280;5866;49.094;11.900;2023-03-13T08:47:52;95440.81;;;13.16;100.00
11621;BME280;5866;49.094;11.900;2023-03-13T08:50:19;95437.50;;;14.35;100.00
11621;BME280;5866;49.094;11.900;2023-03-13T08:52:47;95428.06;;;14.85;93.55
11621;BME280;5866;49.094;11.900;2023-03-13T08:55:14;95418.91;;;15.32;90.46
11621;BME280;5866;49.094;11.900;2023-03-13T08:57:42;95419.25;;;15.42;81.00
11621;BME280;5866;49.094;11.900;2023-03-13T09:00:11;95425.97;;;14.93;82.99
11621;BME280;5866;49.094;11.900;2023-03-13T09:02:40;95418.22;;;14.46;87.63
11621;BME280;5866;49.094;11.900;2023-03-13T09:05:09;95416.97;;;14.36;88.00
11621;BME280;5866;49.094;11.900;2023-03-13T09:07:36;95415.34;;;14.41;87.63
11621;BME280;5866;49.094;11.900;2023-03-13T09:10:05;95407.91;;;14.10;90.17
11621;BME280;5866;49.094;11.900;2023-03-13T09:12:32;95405.84;;;13.99;90.16
11621;BME280;5866;49.094;11.900;2023-03-13T09:15:00;95407.81;;;13.65;92.54
11621;BME280;5866;49.094;11.900;2023-03-13T09:17:27;95395.03;;;13.40;92.98
11621;BME280;5866;49.094;11.900;2023-03-13T09:19:55;95394.75;;;12.88;97.95
11621;BME280;5866;49.094;11.900;2023-03-13T09:22:27;95403.94;;;12.51;100.00
11621;BME280;5866;49.094;11.900;2023-03-13T09:24:55;95387.88;;;12.38;100.00
11621;BME280;5866;49.094;11.900;2023-03-13T09:27:22;95399.22;;;11.98;100.00
11621;BME280;5866;49.094;11.900;2023-03-13T09:29:49;95390.28;;;11.84;100.00
11621;BME280;5866;49.094;11.900;2023-03-13T09:32:17;95389.63;;;12.04;100.00
11621;BME280;5866;49.094;11.900;2023-03-13T09:34:46;95392.44;;;11.95;100.00
11621;BME280;5866;49.094;11.900;2023-03-13T09:37:13;95380.53;;;12.13;100.00
11621;BME280;5866;49.094;11.900;2023-03-13T09:39:42;95369.34;;;12.24;100.00
11621;BME280;5866;49.094;11.900;2023-03-13T09:42:14;95375.25;;;12.47;100.00
11621;BME280;5866;49.094;11.900;2023-03-13T09:44:45;95381.91;;;12.64;100.00
11621;BME280;5866;49.094;11.900;2023-03-13T09:47:20;95381.53;;;12.73;100.00
11621;BME280;5866;49.094;11.900;2023-03-13T09:49:52;95374.13;;;13.03;100.00
11621;BME280;5866;49.094;11.900;2023-03-13T09:52:23;95377.63;;;13.04;100.00
11621;BME280;5866;49.094;11.900;2023-03-13T09:54:53;95376.34;;;12.93;100.00
11621;BME280;5866;49.094;11.900;2023-03-13T09:57:27;95361.72;;;13.10;100.00
11621;BME280;5866;49.094;11.900;2023-03-13T09:59:59;95366.44;;;13.08;100.00
11621;BME280;5866;49.094;11.900;2023-03-13T10:02:31;95372.06;;;12.92;100.00
11621;BME280;5866;49.094;11.900;2023-03-13T10:05:07;95369.59;;;12.97;100.00
11621;BME280;5866;49.094;11.900;2023-03-13T10:07:36;95368.69;;;13.11;100.00
11621;BME280;5866;49.094;11.900;2023-03-13T10:10:11;95365.06;;;13.25;100.00
11621;BME280;5866;49.094;11.900;2023-03-13T10:12:43;95368.34;;;13.27;100.00
11621;BME280;5866;49.094;11.900;2023-03-13T10:15:33;95376.16;;;13.35;100.00
11621;BME280;5866;49.094;11.900;2023-03-13T10:18:13;95371.09;;;13.53;100.00
11621;BME280;5866;49.094;11.900;2023-03-13T10:20:42;95369.09;;;13.75;99.05
11621;BME280;5866;49.094;11.900;2023-03-13T10:23:14;95368.31;;;14.01;97.60
11621;BME280;5866;49.094;11.900;2023-03-13T10:25:44;95360.97;;;14.29;96.10
11621;BME280;5866;49.094;11.900;2023-03-13T10:28:13;95362.13;;;14.85;89.66
11621;BME280;5866;49.094;11.900;2023-03-13T10:30:46;95346.75;;;14.74;88.70
11621;BME280;5866;49.094;11.900;2023-03-13T10:33:19;95364.84;;;14.53;91.57
11621;BME280;5866;49.094;11.900;2023-03-13T10:35:58;95350.13;;;15.14;88.28
11621;BME280;5866;49.094;11.900;2023-03-13T10:38:26;95350.19;;;16.14;80.26
11621;BME280;5866;49.094;11.900;2023-03-13T10:40:59;95351.59;;;16.91;74.60
11621;BME280;5866;49.094;11.900;2023-03-13T10:43:28;95345.84;;;17.89;70.26
11621;BME280;5866;49.094;11.900;2023-03-13T10:45:55;95344.50;;;18.74;62.54
11621;BME280;5866;49.094;11.900;2023-03-13T10:48:25;95340.66;;;18.59;62.71
11621;BME280;5866;49.094;11.900;2023-03-13T10:50:54;95344.34;;;17.93;63.87
11621;BME280;5866;49.094;11.900;2023-03-13T10:53:30;95352.03;;;17.42;67.79
11621;BME280;5866;49.094;11.900;2023-03-13T10:56:08;95346.38;;;16.78;70.39
11621;BME280;5866;49.094;11.900;2023-03-13T10:58:40;95339.09;;;17.21;71.12
11621;BME280;5866;49.094;11.900;2023-03-13T11:01:15;95355.91;;;17.46;68.86
11621;BME280;5866;49.094;11.900;2023-03-13T11:03:44;95340.13;;;18.39;64.63
11621;BME280;5866;49.094;11.900;2023-03-13T11:06:24;95345.22;;;18.93;62.67
11621;BME280;5866;49.094;11.900;2023-03-13T11:09:01;95335.81;;;18.38;63.33
11621;BME280;5866;49.094;11.900;2023-03-13T11:11:42;95339.19;;;17.80;65.83
11621;BME280;5866;49.094;11.900;2023-03-13T11:14:15;95339.75;;;17.53;67.59
11621;BME280;5866;49.094;11.900;2023-03-13T11:16:48;95330.31;;;16.96;71.81
11621;BME280;5866;49.094;11.900;2023-03-13T11:19:27;95343.47;;;16.79;71.73
11621;BME280;5866;49.094;11.900;2023-03-13T11:22:09;95335.25;;;16.31;75.58
11621;BME280;5866;49.094;11.900;2023-03-13T11:24:45;95345.78;;;16.26;78.69
11621;BME280;5866;49.094;11.900;2023-03-13T11:27:24;95335.91;;;16.51;75.58
11621;BME280;5866;49.094;11.900;2023-03-13T11:30:03;95333.59;;;16.98;73.37
11621;BME280;5866;49.094;11.900;2023-03-13T11:32:39;95340.97;;;16.35;77.59
11621;BME280;5866;49.094;11.900;2023-03-13T11:35:19;95325.66;;;16.17;78.32
11621;BME280;5866;49.094;11.900;2023-03-13T11:37:49;95323.50;;;16.08;81.41
11621;BME280;5866;49.094;11.900;2023-03-13T11:40:19;95317.31;;;15.82;80.13
11621;BME280;5866;49.094;11.900;2023-03-13T11:43:02;95314.16;;;15.61;82.97
11621;BME280;5866;49.094;11.900;2023-03-13T11:46:02;95318.75;;;15.41;85.66
11621;BME280;5866;49.094;11.900;2023-03-13T11:48:45;95325.44;;;15.63;85.03
11621;BME280;5866;49.094;11.900;2023-03-13T11:51:19;95322.97;;;15.68;83.42
11621;BME280;5866;49.094;11.900;2023-03-13T11:54:10;95318.75;;;15.47;83.62
11621;BME280;5866;49.094;11.900;2023-03-13T11:56:43;95328.06;;;15.25;87.36
11621;BME280;5866;49.094;11.900;2023-03-13T11:59:27;95329.19;;;15.04;89.77
11621;BME280;5866;49.094;11.900;2023-03-13T12:01:59;95326.28;;;15.12;87.09
11621;BME280;5866;49.094;11.900;2023-03-13T12:04:33;95317.38;;;15.25;87.66
11621;BME280;5866;49.094;11.900;2023-03-13T12:07:06;95316.81;;;15.61;87.83
11621;BME280;5866;49.094;11.900;2023-03-13T12:09:41;95310.09;;;15.83;83.15
11621;BME280;5866;49.094;11.900;2023-03-13T12:12:16;95305.28;;;16.23;80.39
11621;BME280;5866;49.094;11.900;2023-03-13T12:14:51;95296.63;;;16.21;79.03
11621;BME280;5866;49.094;11.900;2023-03-13T12:17:28;95289.66;;;17.65;73.13
11621;BME280;5866;49.094;11.900;2023-03-13T12:20:01;95281.38;;;19.12;63.23
11621;BME280;5866;49.094;11.900;2023-03-13T12:22:36;95279.50;;;19.80;58.41
11621;BME280;5866;49.094;11.900;2023-03-13T12:25:12;95275.22;;;19.67;57.67
11621;BME280;5866;49.094;11.900;2023-03-13T12:27:44;95257.25;;;19.28;58.95
11621;BME280;5866;49.094;11.900;2023-03-13T12:30:23;95254.22;;;18.85;59.29
11621;BME280;5866;49.094;11.900;2023-03-13T12:32:57;95254.31;;;18.20;64.69
11621;BME280;5866;49.094;11.900;2023-03-13T12:35:29;95245.44;;;18.78;63.29
11621;BME280;5866;49.094;11.900;2023-03-13T12:38:04;95251.88;;;19.56;59.90
11621;BME280;5866;49.094;11.900;2023-03-13T12:40:40;95262.16;;;19.59;57.83
11621;BME280;5866;49.094;11.900;2023-03-13T12:43:13;95246.69;;;19.38;58.82
11621;BME280;5866;49.094;11.900;2023-03-13T12:46:03;95258.19;;;18.71;61.59
11621;BME280;5866;49.094;11.900;2023-03-13T12:48:53;95245.59;;;18.60;62.67
11621;BME280;5866;49.094;11.900;2023-03-13T12:51:36;95246.25;;;18.20;63.93
11621;BME280;5866;49.094;11.900;2023-03-13T12:54:35;95240.31;;;18.42;63.25
11621;BME280;5866;49.094;11.900;2023-03-13T12:57:19;95242.66;;;18.50;64.06
11621;BME280;5866;49.094;11.900;2023-03-13T12:59:52;95239.84;;;18.10;66.18
11621;BME280;5866;49.094;11.900;2023-03-13T13:02:23;95231.75;;;17.75;66.41
11621;BME280;5866;49.094;11.900;2023-03-13T13:04:53;95231.75;;;17.75;67.60
11621;BME280;5866;49.094;11.900;2023-03-13T13:07:24;95219.53;;;18.14;67.73
11621;BME280;5866;49.094;11.900;2023-03-13T13:10:15;95220.00;;;18.22;65.55
11621;BME280;5866;49.094;11.900;2023-03-13T13:12:44;95215.59;;;18.28;65.65
11621;BME280;5866;49.094;11.900;2023-03-13T13:15:19;95202.63;;;18.60;64.19